Time;durP1;ratioP1;P1;durP2;ratioP2;P2;SDS_P1;SDS_P2;PMS_P1;PMS_P2;Temp;Humidity;BMP_temperature;BMP_pressure;BME280_temperature;BME280_humidity;BME280_pressure;Samples;Min_cycle;Max_cycle;Signal;HPM_P1;HPM_P2
2021/11/12 00:04:18;;;;;;;19.23;15.23;;;4.70;99.90;;;;;;5033595;28;20201;-57
2021/11/12 00:12:24;;;;;;;23.97;16.07;;;5.00;99.90;;;;;;5033329;28;20280;-57
2021/11/12 00:14:52;;;;;;;24.30;15.60;;;5.10;99.90;;;;;;5033583;28;20210;-57
2021/11/12 00:17:21;;;;;;;30.90;15.43;;;5.10;99.90;;;;;;5033288;28;20214;-57
2021/11/12 00:19:50;;;;;;;34.03;13.87;;;5.20;99.90;;;;;;5032948;28;20714;-57
2021/11/12 00:22:20;;;;;;;36.87;15.07;;;5.20;99.90;;;;;;5033006;28;20209;-56
2021/11/12 00:24:48;;;;;;;24.20;15.33;;;5.20;99.90;;;;;;5033188;28;20206;-58
2021/11/12 00:27:15;;;;;;;42.83;15.83;;;5.20;99.90;;;;;;5033294;28;20233;-57
2021/11/12 00:29:45;;;;;;;33.53;15.63;;;5.20;99.90;;;;;;5033029;28;20713;-57
2021/11/12 00:32:19;;;;;;;19.70;14.87;;;5.10;99.90;;;;;;5033260;28;20272;-56
2021/11/12 00:35:02;;;;;;;21.27;15.20;;;5.10;99.90;;;;;;5032997;28;20249;-56
2021/11/12 00:37:42;;;;;;;18.67;15.00;;;5.10;99.90;;;;;;5032937;28;20743;-59
2021/11/12 00:40:16;;;;;;;22.97;15.30;;;5.10;99.90;;;;;;5033039;28;20210;-57
2021/11/12 00:42:45;;;;;;;22.10;15.10;;;5.20;99.90;;;;;;5033016;28;20206;-58
2021/11/12 00:45:18;;;;;;;20.80;14.87;;;5.40;99.90;;;;;;5033074;28;20275;-57
2021/11/12 00:47:48;;;;;;;18.03;14.33;;;5.40;99.90;;;;;;5032947;28;20233;-57
2021/11/12 00:50:51;;;;;;;22.03;14.03;;;5.50;99.90;;;;;;5033027;28;20572;-58
2021/11/12 00:56:04;;;;;;;33.23;15.33;;;5.50;99.90;;;;;;5032924;28;20205;-57
2021/11/12 00:58:31;;;;;;;27.20;14.40;;;5.40;99.90;;;;;;5032661;28;20226;-57
2021/11/12 01:00:59;;;;;;;48.70;14.30;;;5.30;99.90;;;;;;5032605;28;20729;-57
2021/11/12 01:03:25;;;;;;;34.87;15.50;;;5.30;99.90;;;;;;5032246;28;20581;-56
2021/11/12 01:05:52;;;;;;;49.67;14.17;;;5.20;99.90;;;;;;5032374;28;20202;-57
2021/11/12 01:08:19;;;;;;;94.37;14.93;;;5.10;99.90;;;;;;5031868;28;20762;-57
2021/11/12 01:10:47;;;;;;;107.77;16.00;;;5.10;99.90;;;;;;5032545;28;20243;-57
2021/11/12 01:13:15;;;;;;;51.57;14.87;;;5.20;99.90;;;;;;5032379;28;20236;-58
2021/11/12 01:15:41;;;;;;;70.53;16.03;;;5.10;99.90;;;;;;5032202;28;20206;-57
2021/11/12 01:18:09;;;;;;;57.73;16.63;;;5.00;99.90;;;;;;5031921;28;20230;-57
2021/11/12 01:20:36;;;;;;;25.70;15.57;;;4.90;99.90;;;;;;5032074;28;20206;-57
2021/11/12 01:23:03;;;;;;;58.43;16.30;;;4.90;99.90;;;;;;5032035;28;20571;-57
2021/11/12 01:25:30;;;;;;;38.43;16.20;;;4.90;99.90;;;;;;5031738;28;20694;-57
2021/11/12 01:27:56;;;;;;;32.27;16.40;;;5.00;99.90;;;;;;5031941;28;20218;-57
2021/11/12 01:30:24;;;;;;;37.37;15.30;;;5.00;99.90;;;;;;5031979;28;20252;-57
2021/11/12 01:32:51;;;;;;;29.70;14.17;;;4.90;99.90;;;;;;5031824;28;20206;-57
2021/11/12 01:35:19;;;;;;;48.17;14.27;;;4.90;99.90;;;;;;5031609;28;20217;-57
2021/11/12 01:37:47;;;;;;;30.93;14.70;;;4.80;99.90;;;;;;5031494;28;20658;-57
2021/11/12 01:40:20;;;;;;;36.57;13.37;;;4.70;99.90;;;;;;5032471;28;20206;-57
2021/11/12 01:43:02;;;;;;;24.97;13.83;;;4.60;99.90;;;;;;5031882;28;20213;-57
2021/11/12 01:51:08;;;;;;;48.73;13.73;;;4.60;99.90;;;;;;4995529;28;20233;-57
2021/11/12 01:53:38;;;;;;;37.80;14.03;;;4.60;99.90;;;;;;5031509;28;20210;-57
2021/11/12 01:56:29;;;;;;;47.63;13.70;;;4.40;99.90;;;;;;5031745;28;20209;-57
2021/11/12 01:59:10;;;;;;;27.00;13.93;;;4.20;99.90;;;;;;5031446;28;20321;-56
2021/11/12 02:01:44;;;;;;;17.13;13.07;;;4.30;99.90;;;;;;5031341;28;20635;-57
2021/11/12 02:04:13;;;;;;;15.93;12.27;;;4.30;99.90;;;;;;5031287;28;20202;-57
2021/11/12 02:06:41;;;;;;;16.90;13.43;;;4.50;99.90;;;;;;5031109;28;20213;-57
2021/11/12 02:09:15;;;;;;;19.53;13.27;;;4.50;99.90;;;;;;5031351;28;20230;-57
2021/11/12 02:11:44;;;;;;;49.93;13.20;;;4.60;99.90;;;;;;5031113;28;20376;-57
2021/11/12 02:14:11;;;;;;;60.13;14.30;;;4.50;99.90;;;;;;5031030;28;20670;-57
2021/11/12 02:16:43;;;;;;;26.80;12.80;;;4.40;99.90;;;;;;5031121;28;20249;-57
2021/11/12 02:19:10;;;;;;;24.37;12.63;;;4.30;99.90;;;;;;5030477;28;20223;-58
2021/11/12 02:21:44;;;;;;;34.70;13.00;;;4.40;99.90;;;;;;5031289;28;20289;-57
2021/11/12 02:24:11;;;;;;;24.40;13.30;;;4.40;99.90;;;;;;5031470;28;20206;-58
2021/11/12 02:26:41;;;;;;;20.57;13.53;;;4.50;99.90;;;;;;5031320;28;20629;-56
2021/11/12 02:29:10;;;;;;;19.17;13.17;;;4.60;99.90;;;;;;5030923;28;20673;-56
2021/11/12 02:31:37;;;;;;;27.27;13.60;;;4.70;99.90;;;;;;5031027;28;20222;-58
2021/11/12 02:34:07;;;;;;;16.63;13.53;;;4.80;99.90;;;;;;5031175;28;20260;-56
2021/11/12 02:36:35;;;;;;;23.17;13.43;;;4.90;99.90;;;;;;5031267;28;20225;-58
2021/11/12 02:39:06;;;;;;;16.07;12.73;;;5.00;99.90;;;;;;5030721;28;20244;-58
2021/11/12 02:41:34;;;;;;;17.67;12.33;;;5.10;99.90;;;;;;5031436;28;20198;-58
2021/11/12 02:44:02;;;;;;;14.77;12.93;;;5.10;99.90;;;;;;5030980;28;20212;-58
2021/11/12 02:46:30;;;;;;;16.20;12.87;;;5.10;99.90;;;;;;5031176;28;20260;-58
2021/11/12 02:48:57;;;;;;;14.67;13.13;;;5.10;99.90;;;;;;5030931;28;20234;-58
2021/11/12 02:51:30;;;;;;;16.93;12.40;;;5.10;99.90;;;;;;5030875;28;20233;-59
2021/11/12 02:53:58;;;;;;;17.77;13.33;;;5.30;99.90;;;;;;5031316;28;20217;-56
2021/11/12 02:56:29;;;;;;;24.10;12.73;;;5.30;99.90;;;;;;5030730;28;20210;-58
2021/11/12 02:59:00;;;;;;;41.27;13.63;;;5.30;99.90;;;;;;5031031;28;20230;-58
2021/11/12 03:01:28;;;;;;;79.93;14.70;;;5.30;99.90;;;;;;5030764;28;20206;-58
2021/11/12 03:03:55;;;;;;;36.10;13.80;;;5.30;99.90;;;;;;5030648;28;20233;-58
2021/11/12 03:06:23;;;;;;;42.50;13.33;;;5.20;99.90;;;;;;5030715;28;20221;-57
2021/11/12 03:08:51;;;;;;;30.07;13.93;;;5.10;99.90;;;;;;5030397;28;20249;-56
2021/11/12 03:11:19;;;;;;;72.47;14.00;;;5.00;99.90;;;;;;5030563;28;20250;-57
2021/11/12 03:13:47;;;;;;;30.20;13.37;;;4.90;99.90;;;;;;5030619;28;20202;-57
2021/11/12 03:16:15;;;;;;;37.83;13.20;;;4.80;99.90;;;;;;5030507;28;20682;-57
2021/11/12 03:18:42;;;;;;;76.90;14.90;;;4.80;99.90;;;;;;5030496;28;20230;-58
2021/11/12 03:21:12;;;;;;;40.23;13.80;;;4.80;99.90;;;;;;5030607;28;20206;-57
2021/11/12 03:23:44;;;;;;;38.80;14.00;;;4.80;99.90;;;;;;5030233;28;20808;-57
2021/11/12 03:26:21;;;;;;;34.00;12.83;;;4.70;99.90;;;;;;5030750;28;20210;-57
2021/11/12 03:29:15;;;;;;;36.57;12.93;;;4.60;99.90;;;;;;5030479;28;20230;-57
2021/11/12 03:59:46;;;;;;;22.50;13.37;;;4.50;99.90;;;;;;5033912;28;20248;-57
2021/11/12 04:02:13;;;;;;;17.63;13.10;;;4.50;99.90;;;;;;5033618;28;20328;-58
2021/11/12 04:04:47;;;;;;;21.53;12.53;;;4.50;99.90;;;;;;5034138;28;20202;-58
2021/11/12 04:07:29;;;;;;;20.63;12.97;;;4.60;99.90;;;;;;5033574;28;20225;-57
2021/11/12 05:10:57;;;;;;;23.30;11.97;;;3.80;99.90;;;;;;5032647;28;20205;-57
2021/11/12 05:13:38;;;;;;;18.37;11.73;;;3.60;99.90;;;;;;5032761;28;20222;-57
2021/11/12 05:43:42;;;;;;;25.33;11.83;;;4.10;99.90;;;;;;5031661;28;20337;-57
2021/11/12 05:46:21;;;;;;;25.73;11.47;;;4.10;99.90;;;;;;5031921;28;20224;-57
2021/11/12 05:51:38;;;;;;;32.00;12.13;;;4.10;99.90;;;;;;5030425;28;20237;-57
2021/11/12 05:56:57;;;;;;;24.30;15.50;;;4.10;99.90;;;;;;5031914;28;20201;-57
2021/11/12 05:59:25;;;;;;;23.53;12.87;;;4.20;99.90;;;;;;5031336;28;20287;-57
2021/11/12 06:01:52;;;;;;;20.87;11.90;;;4.30;99.90;;;;;;5031430;28;20198;-57
2021/11/12 06:04:20;;;;;;;21.57;12.97;;;4.30;99.90;;;;;;5031185;28;20217;-56
2021/11/12 06:06:47;;;;;;;19.90;11.77;;;4.40;99.90;;;;;;5031467;28;20217;-57
2021/11/12 06:09:13;;;;;;;19.83;12.03;;;4.60;99.90;;;;;;5031141;28;20226;-57
2021/11/12 06:11:40;;;;;;;17.13;12.70;;;4.60;99.90;;;;;;5031328;28;20444;-60
2021/11/12 06:14:09;;;;;;;15.07;11.93;;;4.70;99.90;;;;;;5031564;28;20293;-56
2021/11/12 06:16:35;;;;;;;18.23;11.80;;;4.60;99.90;;;;;;5031253;28;20206;-59
2021/11/12 06:19:04;;;;;;;18.77;12.13;;;4.60;99.90;;;;;;5031044;28;20283;-57
2021/11/12 06:21:31;;;;;;;17.37;13.27;;;4.60;99.90;;;;;;5031326;28;20209;-57
2021/11/12 06:23:58;;;;;;;17.37;13.47;;;4.60;99.90;;;;;;5031029;28;20674;-57
2021/11/12 06:26:25;;;;;;;19.80;12.93;;;4.70;99.90;;;;;;5031098;28;20217;-57
2021/11/12 06:28:52;;;;;;;25.37;12.03;;;4.80;99.90;;;;;;5030621;28;20230;-57
2021/11/12 06:31:21;;;;;;;35.13;12.97;;;4.90;99.90;;;;;;5031287;28;20214;-57
2021/11/12 06:33:48;;;;;;;31.27;16.23;;;4.90;99.90;;;;;;5030681;28;20603;-57
2021/11/12 06:36:15;;;;;;;26.17;11.67;;;4.90;99.90;;;;;;5031311;28;20213;-58
2021/11/12 06:38:41;;;;;;;18.43;11.50;;;4.90;99.90;;;;;;5030797;28;20249;-58
2021/11/12 06:41:10;;;;;;;13.50;11.43;;;4.90;99.90;;;;;;5030985;28;20583;-58
2021/11/12 06:43:42;;;;;;;13.17;11.60;;;4.90;99.90;;;;;;5030554;28;20710;-57
2021/11/12 06:51:40;;;;;;;17.23;12.23;;;5.00;99.90;;;;;;5030833;28;20584;-58
2021/11/12 06:54:06;;;;;;;17.70;12.10;;;5.10;99.90;;;;;;5030663;28;20634;-58
2021/11/12 06:56:33;;;;;;;13.67;10.67;;;5.10;99.90;;;;;;5031139;28;20633;-57
2021/11/12 06:59:00;;;;;;;17.40;11.47;;;5.00;99.90;;;;;;5030692;28;20237;-58
2021/11/12 07:01:30;;;;;;;21.27;10.87;;;4.90;99.90;;;;;;5030607;28;20202;-58
2021/11/12 07:03:58;;;;;;;24.57;11.60;;;5.00;99.90;;;;;;5030566;28;20283;-58
2021/11/12 07:06:25;;;;;;;19.30;15.17;;;5.00;99.90;;;;;;5032770;28;20214;-58
2021/11/12 07:08:52;;;;;;;21.87;11.13;;;5.00;99.90;;;;;;5034687;28;20228;-57
2021/11/12 07:11:20;;;;;;;17.57;12.50;;;5.10;99.90;;;;;;5034565;28;20210;-57
2021/11/12 07:13:47;;;;;;;18.23;12.57;;;5.00;99.90;;;;;;5034144;28;20671;-57
2021/11/12 07:16:14;;;;;;;19.50;12.37;;;5.00;99.90;;;;;;5034526;28;20210;-58
2021/11/12 07:18:41;;;;;;;19.30;12.97;;;5.10;99.90;;;;;;5034415;28;20226;-59
2021/11/12 07:21:09;;;;;;;13.97;10.83;;;5.10;99.90;;;;;;5034608;28;20284;-58
2021/11/12 07:23:36;;;;;;;18.37;13.37;;;5.20;99.90;;;;;;5034527;28;20203;-57
2021/11/12 07:26:03;;;;;;;22.73;15.13;;;5.20;99.90;;;;;;5034753;28;20268;-58
2021/11/12 07:28:29;;;;;;;15.07;11.83;;;5.40;99.90;;;;;;5034029;28;20779;-58
2021/11/12 07:30:57;;;;;;;19.87;11.93;;;5.40;99.90;;;;;;5034827;28;20206;-58
2021/11/12 07:33:24;;;;;;;13.13;11.50;;;5.50;99.90;;;;;;5033892;28;20225;-57
2021/11/12 07:35:54;;;;;;;17.73;13.10;;;5.50;99.90;;;;;;5034164;28;20206;-56
2021/11/12 07:38:24;;;;;;;15.73;11.60;;;5.50;99.90;;;;;;5034469;28;20289;-56
2021/11/12 07:41:15;;;;;;;19.07;11.20;;;5.50;99.90;;;;;;5034053;28;20252;-56
2021/11/12 07:46:36;;;;;;;12.33;10.27;;;5.50;99.90;;;;;;5034197;28;20324;-56
2021/11/12 07:49:05;;;;;;;13.50;10.70;;;5.60;99.90;;;;;;5033658;28;20283;-56
2021/11/12 07:51:32;;;;;;;18.83;10.57;;;5.50;99.90;;;;;;5033703;28;20217;-56
2021/11/12 07:54:00;;;;;;;18.20;11.23;;;5.60;99.90;;;;;;5033629;28;20241;-56
2021/11/12 07:56:27;;;;;;;28.77;20.47;;;5.70;99.90;;;;;;5034163;28;20202;-56
2021/11/12 07:58:54;;;;;;;14.63;11.27;;;5.80;99.90;;;;;;5033673;28;20229;-57
2021/11/12 08:01:21;;;;;;;13.37;10.50;;;6.00;99.90;;;;;;5033701;28;20740;-57
2021/11/12 08:03:51;;;;;;;13.27;10.90;;;6.10;99.90;;;;;;5033394;28;20210;-57
2021/11/12 08:06:19;;;;;;;13.73;10.40;;;6.20;99.90;;;;;;5033589;28;20241;-57
2021/11/12 08:08:51;;;;;;;12.77;10.50;;;6.20;99.90;;;;;;5033395;28;20252;-57
2021/11/12 08:11:25;;;;;;;11.23;9.33;;;6.20;99.90;;;;;;5033337;28;20206;-57
2021/11/12 08:13:56;;;;;;;11.37;9.90;;;6.30;99.90;;;;;;5033064;28;20642;-56
2021/11/12 08:16:32;;;;;;;16.67;12.87;;;6.30;99.90;;;;;;5033435;28;20214;-57
2021/11/12 08:19:01;;;;;;;13.83;11.00;;;6.30;99.90;;;;;;5032502;28;20226;-57
2021/11/12 08:21:35;;;;;;;18.63;11.10;;;6.40;99.90;;;;;;5033211;28;20202;-57
2021/11/12 08:24:08;;;;;;;13.50;10.80;;;6.40;99.90;;;;;;5033373;28;20209;-56
2021/11/12 08:26:44;;;;;;;19.83;11.40;;;6.40;99.90;;;;;;5033760;28;20213;-57
2021/11/12 08:29:26;;;;;;;15.67;11.93;;;6.40;99.90;;;;;;5033337;28;20321;-56
2021/11/12 08:32:08;;;;;;;18.37;11.57;;;6.40;99.90;;;;;;5033119;28;20214;-57
2021/11/12 08:34:44;;;;;;;16.57;12.33;;;6.50;99.90;;;;;;5033172;28;20256;-57
2021/11/12 08:37:17;;;;;;;15.13;11.97;;;6.30;99.90;;;;;;5033286;28;20218;-56
2021/11/12 08:40:02;;;;;;;13.10;11.13;;;6.10;99.90;;;;;;5032768;28;20641;-57
2021/11/12 08:42:34;;;;;;;14.87;11.57;;;6.10;99.90;;;;;;5033134;28;20397;-57
2021/11/12 08:45:06;;;;;;;12.23;10.63;;;6.30;99.90;;;;;;5032740;28;20212;-57
2021/11/12 08:47:35;;;;;;;12.67;10.70;;;6.50;99.90;;;;;;5032774;28;20245;-57
2021/11/12 08:50:02;;;;;;;13.67;11.27;;;6.60;99.90;;;;;;5032393;28;20232;-57
2021/11/12 08:52:29;;;;;;;12.00;10.73;;;6.90;99.90;;;;;;5032252;28;20653;-57
2021/11/12 08:54:56;;;;;;;12.97;11.07;;;7.10;99.90;;;;;;5032277;28;20232;-57
2021/11/12 08:57:23;;;;;;;16.90;14.13;;;7.30;99.90;;;;;;5032578;28;20566;-58
2021/11/12 08:59:53;;;;;;;15.20;12.23;;;7.60;99.90;;;;;;5032517;28;20237;-58
2021/11/12 09:02:26;;;;;;;14.27;11.10;;;7.70;99.90;;;;;;5032599;28;20210;-57
2021/11/12 09:04:53;;;;;;;15.07;11.43;;;7.70;99.90;;;;;;5032543;28;20240;-58
2021/11/12 09:07:20;;;;;;;13.37;11.77;;;7.60;99.90;;;;;;5032590;28;20256;-57
2021/11/12 09:09:50;;;;;;;13.37;11.63;;;7.50;99.90;;;;;;5032328;28;20730;-61
2021/11/12 09:12:18;;;;;;;15.37;11.87;;;7.60;99.90;;;;;;5032790;28;20301;-59
2021/11/12 09:14:47;;;;;;;13.03;11.30;;;7.70;99.90;;;;;;5032342;28;20213;-59
2021/11/12 09:17:16;;;;;;;16.57;11.67;;;7.90;99.90;;;;;;5032368;28;20206;-59
2021/11/12 09:19:47;;;;;;;15.37;11.90;;;8.00;99.90;;;;;;5032110;28;20253;-59
2021/11/12 09:22:14;;;;;;;16.30;13.20;;;8.20;99.90;;;;;;5032603;28;20457;-60
2021/11/12 09:24:42;;;;;;;14.10;11.93;;;8.30;99.90;;;;;;5032328;28;20637;-59
2021/11/12 09:27:09;;;;;;;13.43;11.97;;;8.30;99.90;;;;;;5032175;28;20222;-59
2021/11/12 09:29:36;;;;;;;13.80;12.13;;;8.10;99.90;;;;;;5031664;28;20237;-59
2021/11/12 09:32:04;;;;;;;14.27;12.33;;;7.90;99.90;;;;;;5031970;28;20633;-59
2021/11/12 09:34:34;;;;;;;13.93;12.13;;;7.80;99.90;;;;;;5031527;28;20226;-59
2021/11/12 09:37:02;;;;;;;13.83;11.70;;;8.00;99.90;;;;;;5032169;28;20202;-60
2021/11/12 09:39:29;;;;;;;15.23;12.47;;;8.10;99.90;;;;;;5031563;28;20268;-59
2021/11/12 09:41:56;;;;;;;16.60;14.10;;;8.30;99.90;;;;;;5032042;28;20206;-59
2021/11/12 09:44:23;;;;;;;19.53;14.63;;;8.50;99.90;;;;;;5031653;28;20643;-60
2021/11/12 09:46:51;;;;;;;15.97;14.13;;;8.60;99.90;;;;;;5031770;28;20236;-60
2021/11/12 09:49:17;;;;;;;16.23;13.97;;;8.80;99.90;;;;;;5031570;28;20608;-60
2021/11/12 09:51:46;;;;;;;16.67;13.07;;;8.90;99.90;;;;;;5031875;28;20213;-60
2021/11/12 09:54:13;;;;;;;19.20;14.03;;;9.00;99.90;;;;;;5031312;28;20816;-60
2021/11/12 09:56:39;;;;;;;21.37;15.20;;;9.00;99.90;;;;;;5031541;28;20206;-60
2021/11/12 09:59:06;;;;;;;16.43;13.77;;;9.00;99.90;;;;;;5031286;28;20725;-60
2021/11/12 10:01:37;;;;;;;18.27;14.77;;;8.90;99.90;;;;;;5031340;28;20284;-60
2021/11/12 10:04:08;;;;;;;19.40;15.03;;;8.90;99.90;;;;;;5031499;28;20202;-59
2021/11/12 10:06:37;;;;;;;16.60;13.77;;;8.90;99.90;;;;;;5031409;28;20656;-59
2021/11/12 10:09:14;;;;;;;21.80;15.97;;;9.00;99.90;;;;;;5031520;28;20635;-59
2021/11/12 10:11:48;;;;;;;21.67;15.97;;;8.70;99.90;;;;;;5031262;28;20209;-60
2021/11/12 10:14:16;;;;;;;21.80;17.03;;;8.20;99.90;;;;;;5031202;28;20226;-60
2021/11/12 10:16:55;;;;;;;20.60;15.00;;;8.00;99.90;;;;;;5031337;28;20218;-60
2021/11/12 10:19:22;;;;;;;19.37;15.57;;;8.20;99.90;;;;;;5031478;28;20226;-60
2021/11/12 10:21:51;;;;;;;21.60;15.63;;;8.40;99.90;;;;;;5031367;28;20209;-60
2021/11/12 10:24:22;;;;;;;20.70;15.57;;;8.50;99.90;;;;;;5031110;28;20233;-60
2021/11/12 10:26:51;;;;;;;20.37;15.97;;;8.20;99.90;;;;;;5031389;28;20197;-59
2021/11/12 10:29:21;;;;;;;19.00;15.27;;;8.10;99.90;;;;;;5030788;28;20230;-60
2021/11/12 10:31:50;;;;;;;16.50;14.67;;;8.10;99.90;;;;;;5031006;28;20711;-60
2021/11/12 10:34:19;;;;;;;18.33;14.80;;;8.20;99.90;;;;;;5030668;28;20729;-60
2021/11/12 10:36:54;;;;;;;18.77;15.87;;;8.60;99.90;;;;;;5030965;28;20210;-59
2021/11/12 10:39:30;;;;;;;20.10;16.17;;;8.90;99.90;;;;;;5030539;28;20863;-59
2021/11/12 10:41:59;;;;;;;19.23;16.10;;;9.10;99.90;;;;;;5030727;28;20222;-59
2021/11/12 10:44:25;;;;;;;18.37;15.40;;;9.30;99.90;;;;;;5030473;28;20720;-59
2021/11/12 10:46:52;;;;;;;18.17;15.20;;;9.40;99.90;;;;;;5030806;28;20206;-59
2021/11/12 10:49:34;;;;;;;18.23;15.37;;;9.40;99.90;;;;;;5030627;28;20229;-59
2021/11/12 10:52:04;;;;;;;21.10;16.50;;;9.50;99.90;;;;;;5030897;28;20551;-59
2021/11/12 10:54:55;;;;;;;20.10;16.67;;;9.60;99.90;;;;;;5030632;28;20230;-60
2021/11/12 10:57:27;;;;;;;20.40;16.73;;;9.70;99.90;;;;;;5031005;28;20206;-59
2021/11/12 11:00:03;;;;;;;21.23;15.37;;;9.80;99.90;;;;;;5030474;28;20226;-59
2021/11/12 11:02:34;;;;;;;22.50;15.83;;;9.80;99.90;;;;;;5031097;28;20240;-60
2021/11/12 11:05:04;;;;;;;19.93;15.87;;;9.80;99.90;;;;;;5030581;28;20206;-60
2021/11/12 11:07:31;;;;;;;20.10;15.73;;;9.70;99.90;;;;;;5030691;28;20210;-60
2021/11/12 11:09:59;;;;;;;19.17;15.17;;;9.70;99.90;;;;;;5030373;28;20226;-59
2021/11/12 11:12:39;;;;;;;19.70;16.20;;;9.90;99.90;;;;;;5030367;28;20577;-60
2021/11/12 11:15:27;;;;;;;19.27;15.43;;;10.10;99.90;;;;;;5030314;28;20230;-60
2021/11/12 11:18:19;;;;;;;15.43;13.73;;;10.10;99.90;;;;;;5030014;28;20504;-59
2021/11/12 11:20:53;;;;;;;16.30;14.20;;;10.10;99.90;;;;;;5030389;28;20229;-59
2021/11/12 11:23:21;;;;;;;17.43;14.27;;;10.20;99.90;;;;;;5030943;28;20478;-60
2021/11/12 11:26:04;;;;;;;17.07;14.43;;;10.30;99.90;;;;;;5030345;28;20207;-59
2021/11/12 11:28:33;;;;;;;19.30;14.93;;;10.40;99.90;;;;;;5030292;28;20230;-59
2021/11/12 11:31:01;;;;;;;16.53;14.83;;;10.50;99.90;;;;;;5030286;28;20260;-59
2021/11/12 11:33:27;;;;;;;15.97;14.27;;;10.40;99.90;;;;;;5030095;28;20229;-59
2021/11/12 11:35:56;;;;;;;16.33;13.67;;;10.30;99.90;;;;;;5030090;28;20217;-60
2021/11/12 11:38:27;;;;;;;18.73;14.67;;;10.30;99.90;;;;;;5030129;28;20300;-59
2021/11/12 11:40:55;;;;;;;16.80;14.70;;;10.10;99.90;;;;;;5030416;28;20218;-61
2021/11/12 11:43:24;;;;;;;17.53;15.17;;;10.10;99.90;;;;;;5030263;28;20662;-59
2021/11/12 11:45:53;;;;;;;17.07;14.83;;;9.70;99.90;;;;;;5030842;28;20305;-59
2021/11/12 11:48:21;;;;;;;17.50;15.27;;;9.10;99.90;;;;;;5030158;28;20253;-59
2021/11/12 11:50:53;;;;;;;21.30;16.87;;;8.80;99.90;;;;;;5030901;28;20209;-59
2021/11/12 11:53:25;;;;;;;19.50;16.17;;;8.60;99.90;;;;;;5033631;28;20210;-61
2021/11/12 11:55:53;;;;;;;20.90;17.63;;;8.60;99.90;;;;;;5034087;28;20566;-59
2021/11/12 11:58:42;;;;;;;23.07;17.90;;;8.70;99.90;;;;;;5032863;28;20276;-60
2021/11/12 12:01:37;;;;;;;20.53;17.60;;;8.70;99.90;;;;;;5033839;28;20620;-59
2021/11/12 12:04:23;;;;;;;21.63;17.67;;;8.60;99.90;;;;;;5033756;28;20270;-59
2021/11/12 12:07:15;;;;;;;23.17;19.17;;;8.60;99.90;;;;;;5016379;28;20218;-60
2021/11/12 12:09:46;;;;;;;21.40;17.87;;;8.50;99.90;;;;;;5033735;28;20222;-59
2021/11/12 12:12:13;;;;;;;22.73;18.30;;;8.20;99.90;;;;;;5033319;28;20210;-59
2021/11/12 12:14:42;;;;;;;23.97;19.07;;;8.00;99.90;;;;;;5033052;28;20222;-59
2021/11/12 12:17:12;;;;;;;20.87;17.63;;;8.10;99.90;;;;;;5032996;28;20210;-60
2021/11/12 12:19:45;;;;;;;22.83;17.67;;;8.40;99.90;;;;;;5033091;28;20230;-60
2021/11/12 13:22:46;;;;;;;19.77;16.27;;;10.40;99.90;;;;;;5032342;28;20202;-59
2021/11/12 13:25:23;;;;;;;22.13;18.77;;;10.30;99.90;;;;;;5032054;28;20234;-59
2021/11/12 13:28:03;;;;;;;21.53;17.53;;;10.30;99.90;;;;;;5031831;28;20340;-59
2021/11/12 13:30:30;;;;;;;24.43;18.00;;;10.00;99.90;;;;;;5032196;28;20214;-59
2021/11/12 13:32:57;;;;;;;22.93;18.60;;;9.70;99.90;;;;;;5032186;28;20206;-59
2021/11/12 13:35:29;;;;;;;23.17;17.57;;;9.10;99.90;;;;;;5031833;28;20553;-59
2021/11/12 13:37:56;;;;;;;20.97;17.87;;;8.70;99.90;;;;;;5031731;28;20210;-59
2021/11/12 13:40:23;;;;;;;24.00;18.90;;;8.40;99.90;;;;;;5071348;23;20236;-60
2021/11/12 13:42:50;;;;;;;24.30;19.47;;;8.20;99.90;;;;;;5053101;28;20263;-61
2021/11/12 13:45:21;;;;;;;24.47;19.37;;;7.90;99.90;;;;;;5052756;28;20303;-61
2021/11/12 13:48:00;;;;;;;22.37;18.97;;;7.80;99.90;;;;;;5053401;28;20214;-61
2021/11/12 13:50:28;;;;;;;24.27;19.43;;;7.80;99.90;;;;;;5052183;28;20229;-62
2021/11/12 13:52:56;;;;;;;24.20;19.20;;;7.80;99.90;;;;;;5053157;28;20217;-61
2021/11/12 13:55:24;;;;;;;28.83;20.67;;;7.80;99.90;;;;;;5052659;28;20229;-60
2021/11/12 13:57:56;;;;;;;24.97;18.73;;;7.80;99.90;;;;;;5051552;28;20209;-62
2021/11/12 14:00:26;;;;;;;31.10;18.97;;;7.80;99.90;;;;;;5051392;28;20225;-61
2021/11/12 14:02:55;;;;;;;25.63;18.97;;;7.60;99.90;;;;;;5051495;28;20259;-60
2021/11/12 14:05:23;;;;;;;35.10;18.60;;;7.50;99.90;;;;;;5051250;28;20248;-61
2021/11/12 14:08:06;;;;;;;24.97;17.67;;;7.50;99.90;;;;;;5051288;28;20252;-62
2021/11/12 14:10:36;;;;;;;25.60;19.07;;;7.40;99.90;;;;;;5051221;28;20233;-61
2021/11/12 14:13:05;;;;;;;20.40;17.33;;;7.60;99.90;;;;;;5051166;28;20201;-62
2021/11/12 14:15:36;;;;;;;25.17;18.03;;;7.80;99.90;;;;;;5049847;28;20256;-60
2021/11/12 14:18:20;;;;;;;27.07;19.87;;;8.10;99.90;;;;;;5051130;28;20202;-60
2021/11/12 14:21:07;;;;;;;35.80;20.03;;;8.10;99.90;;;;;;5051283;28;20210;-60
2021/11/12 14:24:01;;;;;;;40.13;20.83;;;7.90;99.90;;;;;;5051006;28;20212;-61
2021/11/12 14:26:31;;;;;;;30.60;20.00;;;7.80;99.90;;;;;;5051133;28;20240;-60
2021/11/12 14:29:04;;;;;;;28.67;20.23;;;7.50;99.90;;;;;;5051485;28;20253;-59
2021/11/12 14:34:37;;;;;;;41.37;21.57;;;7.10;99.90;;;;;;5050161;28;20594;-60
2021/11/12 14:37:08;;;;;;;45.37;20.07;;;7.10;99.90;;;;;;5056162;28;20206;-61
2021/11/12 14:39:45;;;;;;;31.83;22.30;;;6.90;99.90;;;;;;5056744;28;20244;-60
2021/11/12 14:42:37;;;;;;;32.43;19.67;;;6.70;99.90;;;;;;5054586;28;20209;-61
2021/11/12 14:48:03;;;;;;;43.03;20.00;;;6.60;99.90;;;;;;5052372;28;20200;-61
2021/11/12 14:50:38;;;;;;;24.97;19.80;;;6.50;99.90;;;;;;5053855;28;20735;-61
2021/11/12 14:56:06;;;;;;;32.20;20.97;;;6.50;99.90;;;;;;5042519;28;20228;-61
2021/11/12 14:58:33;;;;;;;38.27;21.67;;;6.60;99.90;;;;;;5050966;28;20273;-61
2021/11/12 15:01:08;;;;;;;33.67;21.77;;;6.60;99.90;;;;;;5051398;28;20215;-61
2021/11/12 15:03:36;;;;;;;31.93;22.00;;;6.80;99.90;;;;;;5050422;28;20207;-61
2021/11/12 15:06:03;;;;;;;32.47;22.30;;;6.80;99.90;;;;;;5050771;28;20368;-61
2021/11/12 15:08:30;;;;;;;32.87;22.23;;;6.80;99.90;;;;;;5050614;28;20220;-61
2021/11/12 15:11:01;;;;;;;57.70;21.27;;;6.90;99.90;;;;;;5050836;28;20259;-61
2021/11/12 15:13:30;;;;;;;43.90;21.30;;;7.00;99.90;;;;;;5050432;28;20209;-61
2021/11/12 15:16:01;;;;;;;32.87;22.37;;;6.80;99.90;;;;;;5050972;28;20231;-60
2021/11/12 15:18:28;;;;;;;28.83;21.63;;;6.60;99.90;;;;;;5050310;28;20209;-61
2021/11/12 15:20:57;;;;;;;28.57;20.57;;;6.50;99.90;;;;;;5050592;28;20202;-61
2021/11/12 15:23:47;;;;;;;32.30;22.30;;;6.70;99.90;;;;;;5050537;28;20213;-61
2021/11/12 15:29:07;;;;;;;35.50;22.97;;;6.90;99.90;;;;;;5053011;28;20271;-60
2021/11/12 15:31:37;;;;;;;39.10;22.87;;;7.10;99.90;;;;;;5054270;28;20216;-62
2021/11/12 15:34:07;;;;;;;36.20;22.60;;;7.20;99.90;;;;;;5053935;28;20201;-61
2021/11/12 15:36:35;;;;;;;30.83;21.43;;;7.30;99.90;;;;;;5054122;28;20213;-60
2021/11/12 15:39:08;;;;;;;39.20;21.60;;;7.40;99.90;;;;;;5053641;28;20834;-60
2021/11/12 15:42:01;;;;;;;29.60;22.07;;;7.30;99.90;;;;;;5054848;28;20209;-61
2021/11/12 15:44:30;;;;;;;30.97;21.57;;;7.30;99.90;;;;;;5054619;28;20202;-61
2021/11/12 15:47:05;;;;;;;41.83;20.80;;;7.40;99.90;;;;;;5054804;28;20209;-61
2021/11/12 15:49:33;;;;;;;32.23;21.37;;;7.50;99.90;;;;;;5054565;28;20666;-61
2021/11/12 15:52:01;;;;;;;26.27;20.23;;;7.40;99.90;;;;;;5054687;28;20213;-61
2021/11/12 15:54:51;;;;;;;34.17;22.00;;;7.30;99.90;;;;;;5054557;28;20251;-61
2021/11/12 16:00:19;;;;;;;48.00;20.53;;;7.40;99.90;;;;;;5054223;28;20225;-61
2021/11/12 16:03:02;;;;;;;38.83;18.90;;;7.10;99.90;;;;;;5055662;28;20205;-60
2021/11/12 16:05:50;;;;;;;48.77;21.17;;;6.50;99.90;;;;;;5060432;28;20197;-60
2021/11/12 16:08:26;;;;;;;46.17;20.27;;;6.10;99.90;;;;;;5064283;28;20237;-60
2021/11/12 16:11:13;;;;;;;36.30;23.17;;;6.00;99.90;;;;;;5058103;28;20669;-61
2021/11/12 16:13:42;;;;;;;28.97;19.23;;;5.90;99.90;;;;;;5062331;28;20209;-64
2021/11/12 16:16:30;;;;;;;53.30;20.93;;;6.00;99.90;;;;;;5059836;28;20225;-62
2021/11/12 16:19:01;;;;;;;54.13;20.60;;;5.90;99.90;;;;;;5054935;28;20237;-63
2021/11/12 16:24:42;;;;;;;46.70;20.53;;;5.60;99.90;;;;;;5050383;28;20193;-63
2021/11/12 16:27:09;;;;;;;44.77;20.93;;;5.50;99.90;;;;;;5054118;28;20209;-64
2021/11/12 16:29:40;;;;;;;47.53;25.30;;;5.40;99.90;;;;;;5054226;28;20232;-62
2021/11/12 16:32:11;;;;;;;30.87;21.50;;;5.60;99.90;;;;;;5053775;28;20202;-63
2021/11/12 16:34:43;;;;;;;33.40;21.73;;;5.80;99.90;;;;;;5053218;28;20608;-63
2021/11/12 16:37:11;;;;;;;44.00;29.23;;;5.90;99.90;;;;;;5053225;28;20202;-61
2021/11/12 16:39:41;;;;;;;42.70;24.23;;;6.10;99.90;;;;;;5052003;28;20233;-61
2021/11/12 16:42:27;;;;;;;42.63;22.73;;;6.10;99.90;;;;;;5053303;28;20202;-62